Record high temperature 101.5°F Record low temperature 10.6°F Record high gust 49.5 mph Record high average 23.3 mph Record daily rain 11.65 in. Record low windchill 2.7°F Record high barometer 30.818 in. Record low barometer 29.117 in.
Daily high pressure 29.825 in. Daily low pressure 29.742 in. Daily low windchill 63.9°F Daily high heat index 90.0°F Daily high gust speed 10.4 mph SSW Daily high average speed 4.8 mph W
On the Greenway Weather data
LAST READING AT TIME: 12:22 PM DATE: July 05 2015, time of next update: 12:23 pm
Current WeatherPartly cloudy/Dry Current Temperature 89.4°F (31.9°C) (Heat Index 89.7°F ), Apparent temp 91.7°F , Apparent temp solar 108.8 °F
Maximum Temperature (since midnight)89.4°F at: 12:21 PM Minimum Temperature (since midnight)63.9°F at: 5:56 AM
Average windspeed (ten minute)2.0 mph Wind Direction (ten minute)W (280°)
Heat Index 89.7°F Maximum Gust (last hour)10.0 mph at: 11:52AM
Maximum Gust (since midnight)10.4 mph at: 11:52 AM Maximum 1 minute average (since midnight)4.8 mph at: 11:53 AM
Rainfall (last hour)0.00 in. (0.0 mm) Rainfall (since midnight)0.00 in. (0.0 mm) ---
Rainfall This month 0.00 in. (0.0 mm) Rainfall To date this year 32.94 in. (836.8 mm)
Maximum rain per minute (last hour)0.00 in/min Maximum rain per hour (last 6 hours)0.00 in/hour
Yesterdays rainfall 0.00 in DewPoint 61.9°F (Wet Bulb :71.9°F )
Humidity 40 %, Humidex 98.4°F Barometer corrected to msl29.806 in. (1009.4 hPa)
Pressure change 0.00 in. (last hour) Trend (last hour)STEADY
Pressure change (last 12 hours)+0.06 in Pressure change (last 6 hours)+0.01 in
Current Indoor Temp. 85.9°F
Current Indoor Hum. 30%
Current Solar 980 W/Mē
Maximum solar (since midnight) 980 W/Mē Minimum solar (since midnight)0 W/Mē
Current 00:00 hours of sunshine today, current sky: Partly cloudy
Sunshine hours for the year: 502:14 hrs Sunshine hours for the month: 27:16 hrs
Current evapotranspiration 0.20 inches per day. Yesterday's reading 0.29

This page is updated from recent data collected by a DAVIS VANTAGE PRO weather station Use the Reload or Refresh facility on your browser to retrieve the latest data.


Click here for the last 24 hour graph
Click here for the last 48 hour graph
Click here for the last 72 hour graph
Click here for the month to date graph


Weather report/warning/Metars

Expires:201507052230;;128533
FPUS56 KPQR 051621
ZFPPQR

ZONE FORECASTS FOR NORTHWEST OREGON AND SOUTHWEST WASHINGTON
NATIONAL WEATHER SERVICE PORTLAND OREGON
921 AM PDT SUN JUL 5 2015

SPOT TEMPERATURES ARE FOR TODAY...TONIGHT...MONDAY...MONDAY NIGHT...
AND TUESDAY.


ORZ006-WAZ039-052230-
GREATER PORTLAND METRO AREA-GREATER VANCOUVER AREA-
INCLUDING THE CITIES OF...HILLSBORO...PORTLAND...WILSONVILLE...
OREGON CITY...GRESHAM...TROUTDALE...VANCOUVER...BATTLE GROUND...
RIDGEFIELD...WASHOUGAL...YACOLT...AMBOY
921 AM PDT SUN JUL 5 2015

...HEAT ADVISORY IN EFFECT UNTIL MIDNIGHT PDT WEDNESDAY NIGHT...

.TODAY...SUNNY. HIGHS 95 TO 100. LIGHT WIND. 
.TONIGHT...CLEAR. LOWS 60 TO AROUND 65. LIGHT WIND. 
.MONDAY...SUNNY. HIGHS 90 TO 95. LIGHT WIND. 
.MONDAY NIGHT...MOSTLY CLEAR. LOWS 55 TO 65. WEST WIND 5 TO 10
MPH.
.TUESDAY...MOSTLY SUNNY. HIGHS 90 TO 95. LIGHT WIND. 
.TUESDAY NIGHT...MOSTLY CLEAR. LOWS AROUND 60. 
.WEDNESDAY...SUNNY. HIGHS 90 TO 95. 
.WEDNESDAY NIGHT...MOSTLY CLEAR. LOWS 60 TO 65. 
.THURSDAY...MOSTLY SUNNY IN THE MORNING...THEN PARTLY CLOUDY. HIGHS
85 TO 90. 
.THURSDAY NIGHT...PARTLY CLOUDY. LOWS AROUND 60. 
.FRIDAY...PARTLY CLOUDY. HIGHS 80 TO 85. 
.FRIDAY NIGHT...PARTLY CLOUDY. LOWS 55 TO 60. 
.SATURDAY...PARTLY CLOUDY. HIGHS AROUND 80. 

&&
                  TEMPERATURE         
PORTLAND          97  66  95  64  95
HILLSBORO         97  60  95  59  95

$$
=


PORTLAND-HILLSBORO AIRPORT, OR, United States (KHIO) 45-33N 122-57W 68M
Jul 05, 2015 - 02:53 PM EDT / 2015.07.05 1853 UTC
Wind: from the SSW (210 degrees) at 8 MPH (7 KT):0
Visibility: 10 mile(s):0
Sky conditions: clear
Temperature: 84.9 F (29.4 C)
Dew Point: 55.9 F (13.3 C)
Relative Humidity: 37%
Pressure (altimeter): 29.82 in. Hg (1009 hPa)
ob: KHIO 051853Z 21007KT 10SM CLR 29/13 A2982 RMK AO2 SLP092 T02940133
cycle: 19
PORTLAND INTERNATIONAL  AIRPORT, OR, United States (KPDX) 45-35N 122-36W 7M
Jul 05, 2015 - 02:53 PM EDT / 2015.07.05 1853 UTC
Wind: from the NW (320 degrees) at 6 MPH (5 KT):0
Visibility: 10 mile(s):0
Sky conditions: mostly clear
Temperature: 84.0 F (28.9 C)
Dew Point: 57.9 F (14.4 C)
Relative Humidity: 41%
Pressure (altimeter): 29.82 in. Hg (1009 hPa)
ob: KPDX 051853Z 32005KT 10SM FEW200 29/14 A2982 RMK AO2 SLP096 T02890144
cycle: 19
PORTLAND-TROUTDALE AIRPORT, OR, United States (KTTD) 45-33N 122-25W 14M
Jul 05, 2015 - 02:53 PM EDT / 2015.07.05 1853 UTC
Wind: Variable at 5 MPH (4 KT):0
Visibility: 10 mile(s):0
Sky conditions: clear
Temperature: 84.9 F (29.4 C)
Dew Point: 55.0 F (12.8 C)
Relative Humidity: 36%
Pressure (altimeter): 29.8 in. Hg (1009 hPa)
ob: KTTD 051853Z VRB04KT 10SM CLR 29/13 A2980 RMK AO2 SLP091 T02940128
cycle: 19
MCMINNVILLE MUNICIPAL AIRPORT , OR, United States (KMMV) 45-12N 123-08W 48M
Jul 05, 2015 - 02:53 PM EDT / 2015.07.05 1853 UTC
Wind: Variable at 5 MPH (4 KT):0
Visibility: 10 mile(s):0
Sky conditions: clear
Temperature: 82.0 F (27.8 C)
Dew Point: 55.0 F (12.8 C)
Relative Humidity: 39%
Pressure (altimeter): 29.83 in. Hg (1010 hPa)
ob: KMMV 051853Z AUTO VRB04KT 10SM CLR 28/13 A2983 RMK AO2 SLP100 T02780128
cycle: 19
SALEM MCNARY FIELD, OR, United States (KSLE) 44-54N 123-00W 59M
Jul 05, 2015 - 02:56 PM EDT / 2015.07.05 1856 UTC
Wind: from the SSW (200 degrees) at 7 MPH (6 KT):0
Visibility: 10 mile(s):0
Sky conditions: clear
Temperature: 84.9 F (29.4 C)
Dew Point: 46.9 F (8.3 C)
Relative Humidity: 26%
Pressure (altimeter): 29.82 in. Hg (1009 hPa)
ob: KSLE 051856Z 20006KT 10SM CLR 29/08 A2982 RMK AO2 SLP094 T02940083
cycle: 19

Date: 7/5/2015
Sunrise at:
05:28 am

Sunset at:
09:02 pm

Moonrise at:
10:49 pm 07/4/15

Moonset at:
09:49 am 07/5/15

First Quarter  June 24 2015
Full moon  July 2 2015
Last QuarterJuly 8 2015
New moon July 16 2015
Moon age: 18 days,6 hours,20 minutes,87%
Hours of possible daylight today was 15:34:00



Use the RELOAD facility on your browser to retrieve the latest data.

Click here for current Fire weather info
Click here for the daily CLIMATOLOGICAL SUMMARY
Click here for a daily update of the averages/extremes to date for the month




Created by "Weather Display" software version 10.377R at this start time/date 5:32:02 PM 7/1/2015




On The Greenway Weather Web Site

 
 
HELP US OUT
Help us keep this weather station on the web. for the Tigard / Portland internet users to use. If you would like to help, click the donate button below
 
This site is purely funded by donations and by myself (Ray Cooper)
Anything you can do will help keep this station on the net
Average cost per year is $665 to publish and host this site excluding the cost of the weather equipment
Buyastrostuff.com is kind enough to host our DNS and email at no cost.
THANKS GUYS & Gals for helping
Have a Question,or just want to talk. Contact me at:
Ray Cooper @ Buyastrostuff.com
 

Weather Underground PWS KORTIGAR12 Weather Underground PWS KORTIGAR12